Papworth Everard, United Kingdom
Current Conditions -  °F | °C
As of 11:50 AM on Friday 24 Oct 2014 (Local Time) from EGSC Reporting Station
Scattered Clouds Scattered Clouds  
Wind Chill: 61°   Ceiling: Unl
Heat Index: 61°   Visibility: 6mi
Dew Point: 55°   Wind: 8mph
Humidity: 82%   Direction: 180°S
Pressure: 29.94"   Gusts: NA
Location:  52.25°N, 0.12°W
Report Text: EGSC 241050Z 18007KT 150V230 9999 SCT015 16/13 Q1014
Loading
Personal Weather Stations






























Interactive Weather Map
Tropical Storm Tracking
New forecast layout! Learn more

10-Day Weather Forecast

Advertisements
Track Severe Weather on mobile